Time;durP1;ratioP1;P1;durP2;ratioP2;P2;SDS_P1;SDS_P2;PMS_P1;PMS_P2;Temp;Humidity;BMP_temperature;BMP_pressure;BME280_temperature;BME280_humidity;BME280_pressure;Samples;Min_cycle;Max_cycle;Signal;HPM_P1;HPM_P2
2021/03/16 00:00:10;;;;;;;12.70;3.10;;;10.00;62.90;;;;;;2061717;28;20037;-60
2021/03/16 00:01:31;;;;;;;11.77;3.17;;;10.10;63.00;;;;;;2072309;28;20528;-60
2021/03/16 00:02:52;;;;;;;10.32;3.13;;;10.00;62.90;;;;;;2069476;28;20065;-59
2021/03/16 00:04:14;;;;;;;11.82;3.55;;;10.10;62.90;;;;;;2060898;28;20034;-59
2021/03/16 00:05:35;;;;;;;12.88;2.65;;;10.10;63.00;;;;;;2070739;28;20029;-60
2021/03/16 00:06:57;;;;;;;11.85;3.10;;;10.10;63.00;;;;;;2065756;28;20065;-59
2021/03/16 00:08:18;;;;;;;13.02;3.65;;;10.10;62.90;;;;;;2064874;28;20034;-60
2021/03/16 00:09:38;;;;;;;9.88;2.90;;;10.10;62.90;;;;;;2066927;28;20405;-59
2021/03/16 00:10:59;;;;;;;14.25;3.08;;;10.10;62.90;;;;;;2065288;28;20038;-59
2021/03/16 00:12:20;;;;;;;12.13;3.15;;;10.10;62.80;;;;;;2064344;28;20388;-60
2021/03/16 00:13:41;;;;;;;12.23;2.90;;;10.10;62.80;;;;;;2062454;28;20474;-60
2021/03/16 00:15:03;;;;;;;8.00;2.92;;;10.10;62.90;;;;;;2070144;28;20030;-60
2021/03/16 00:16:26;;;;;;;11.18;2.85;;;10.10;62.80;;;;;;2065648;28;20454;-60
2021/03/16 00:17:47;;;;;;;10.85;3.00;;;10.10;62.70;;;;;;2069586;28;20018;-60
2021/03/16 00:19:08;;;;;;;12.57;3.55;;;10.10;62.60;;;;;;2064156;28;20026;-61
2021/03/16 00:20:29;;;;;;;10.15;2.63;;;10.10;62.60;;;;;;2069231;28;20033;-60
2021/03/16 00:21:50;;;;;;;15.77;3.80;;;10.10;62.60;;;;;;2068141;28;20037;-60
2021/03/16 00:23:12;;;;;;;11.15;2.70;;;10.10;62.50;;;;;;2065217;28;20030;-61
2021/03/16 00:24:32;;;;;;;9.77;2.40;;;10.10;62.40;;;;;;2064975;28;20373;-61
2021/03/16 00:25:53;;;;;;;12.63;2.90;;;10.10;62.20;;;;;;2063777;28;20121;-60
2021/03/16 00:27:14;;;;;;;9.18;2.60;;;10.20;62.30;;;;;;2062006;28;20034;-61
2021/03/16 00:28:35;;;;;;;7.95;2.40;;;10.10;62.10;;;;;;2066931;28;20099;-60
2021/03/16 00:29:56;;;;;;;11.32;2.72;;;10.20;62.10;;;;;;2064892;28;20050;-61
2021/03/16 00:31:17;;;;;;;8.40;2.65;;;10.10;62.00;;;;;;2059584;28;20071;-59
2021/03/16 00:32:38;;;;;;;7.68;2.88;;;10.10;61.80;;;;;;2066721;28;20065;-60
2021/03/16 00:33:59;;;;;;;12.10;3.13;;;10.10;61.70;;;;;;2063015;28;20503;-60
2021/03/16 00:35:20;;;;;;;8.93;2.72;;;10.10;61.70;;;;;;2062519;28;20516;-60
2021/03/16 00:36:41;;;;;;;10.48;2.30;;;10.20;61.60;;;;;;2064074;28;20026;-60
2021/03/16 00:38:02;;;;;;;8.75;2.25;;;10.20;61.60;;;;;;2056518;28;20039;-60
2021/03/16 00:39:23;;;;;;;12.07;2.80;;;10.20;61.60;;;;;;2055726;28;20034;-61
2021/03/16 00:40:44;;;;;;;8.05;2.50;;;10.20;61.50;;;;;;2065341;28;20029;-60
2021/03/16 00:42:05;;;;;;;8.70;2.63;;;10.20;61.40;;;;;;2062364;28;20093;-59
2021/03/16 00:43:26;;;;;;;9.70;2.90;;;10.20;61.40;;;;;;2058344;28;20439;-59
2021/03/16 00:44:47;;;;;;;12.57;3.00;;;10.20;61.30;;;;;;2061791;28;20123;-59
2021/03/16 00:46:08;;;;;;;9.40;2.28;;;10.20;61.20;;;;;;2064121;28;20077;-59
2021/03/16 00:47:28;;;;;;;6.70;2.50;;;10.20;61.20;;;;;;2069268;28;20034;-61
2021/03/16 00:48:49;;;;;;;11.43;2.85;;;10.20;61.20;;;;;;2068582;28;20049;-61
2021/03/16 00:50:11;;;;;;;8.70;2.83;;;10.20;61.20;;;;;;2058066;28;20031;-60
2021/03/16 00:51:32;;;;;;;10.75;2.70;;;10.20;61.20;;;;;;2067472;28;20030;-61
2021/03/16 00:52:53;;;;;;;11.32;2.92;;;10.20;61.20;;;;;;2070217;28;20034;-59
2021/03/16 00:54:14;;;;;;;11.27;2.78;;;10.20;61.30;;;;;;2059108;28;20030;-59
2021/03/16 00:55:36;;;;;;;10.45;3.17;;;10.20;61.30;;;;;;2069338;28;20472;-59
2021/03/16 00:56:57;;;;;;;13.30;3.40;;;10.20;61.30;;;;;;2070297;28;20037;-60
2021/03/16 00:58:28;;;;;;;12.73;2.97;;;10.20;61.40;;;;;;2066078;28;20096;-60
2021/03/16 00:59:49;;;;;;;10.48;2.60;;;10.20;61.40;;;;;;2067182;28;20026;-61
2021/03/16 01:01:10;;;;;;;9.50;3.20;;;10.20;61.30;;;;;;2060428;28;20069;-59
2021/03/16 01:02:31;;;;;;;8.90;2.83;;;10.20;61.40;;;;;;2067255;28;20022;-58
2021/03/16 01:03:52;;;;;;;8.68;2.63;;;10.20;61.40;;;;;;2064638;28;20049;-59
2021/03/16 01:05:13;;;;;;;10.68;2.75;;;10.30;61.50;;;;;;2054996;28;20035;-61
2021/03/16 01:06:33;;;;;;;8.90;2.55;;;10.30;61.50;;;;;;2063707;28;20026;-60
2021/03/16 01:07:55;;;;;;;6.20;3.03;;;10.30;61.40;;;;;;2065003;28;20136;-61
2021/03/16 01:09:16;;;;;;;12.45;3.35;;;10.30;61.40;;;;;;2060762;28;20030;-61
2021/03/16 01:10:37;;;;;;;9.00;2.92;;;10.30;61.40;;;;;;2062166;28;20038;-60
2021/03/16 01:11:58;;;;;;;8.95;3.03;;;10.30;61.40;;;;;;2070403;28;20026;-60
2021/03/16 01:13:19;;;;;;;11.88;2.70;;;10.20;61.40;;;;;;2061246;28;20034;-61
2021/03/16 01:14:40;;;;;;;9.90;3.25;;;10.20;61.50;;;;;;2064047;28;20030;-61
2021/03/16 01:16:01;;;;;;;9.25;3.42;;;10.30;62.30;;;;;;2071224;28;20081;-61
2021/03/16 01:17:22;;;;;;;11.57;2.90;;;10.20;61.40;;;;;;2060509;28;20232;-60
2021/03/16 01:18:43;;;;;;;10.88;3.10;;;10.20;61.40;;;;;;2064474;28;20693;-60
2021/03/16 01:20:24;;;;;;;9.50;2.70;;;10.20;61.40;;;;;;2055861;28;20041;-60
2021/03/16 01:21:45;;;;;;;9.18;2.70;;;10.20;61.50;;;;;;2066322;28;20145;-60
2021/03/16 01:23:06;;;;;;;8.63;2.50;;;10.20;61.30;;;;;;2063017;28;20058;-59
2021/03/16 01:24:27;;;;;;;8.07;2.17;;;10.20;61.30;;;;;;2063551;28;20034;-60
2021/03/16 01:25:47;;;;;;;14.10;3.85;;;10.20;61.30;;;;;;2070086;28;20038;-60
2021/03/16 01:27:08;;;;;;;10.95;2.88;;;10.20;61.30;;;;;;2062238;28;20053;-60
2021/03/16 01:28:29;;;;;;;8.63;2.70;;;10.20;61.30;;;;;;2061050;28;20088;-60
2021/03/16 01:29:50;;;;;;;12.55;3.03;;;10.20;61.30;;;;;;2063558;28;20044;-60
2021/03/16 01:31:11;;;;;;;14.93;3.35;;;10.20;62.10;;;;;;2057761;28;20097;-59
2021/03/16 01:32:32;;;;;;;14.88;3.97;;;10.20;61.50;;;;;;2061576;28;20195;-60
2021/03/16 01:33:53;;;;;;;10.88;3.10;;;10.20;61.40;;;;;;2070689;28;20045;-59
2021/03/16 01:35:15;;;;;;;9.93;2.60;;;10.20;61.30;;;;;;2064135;28;20035;-60
2021/03/16 01:36:36;;;;;;;11.38;3.60;;;10.20;61.40;;;;;;2064647;28;20037;-60
2021/03/16 01:37:57;;;;;;;12.57;3.45;;;10.20;61.40;;;;;;2065598;28;20061;-60
2021/03/16 01:39:18;;;;;;;11.95;3.03;;;10.10;61.40;;;;;;2057318;28;20027;-60
2021/03/16 01:40:40;;;;;;;13.50;3.80;;;10.10;61.40;;;;;;2066359;28;20465;-60
2021/03/16 01:42:01;;;;;;;13.38;3.35;;;10.10;61.50;;;;;;2072661;28;20033;-60
2021/03/16 01:43:25;;;;;;;11.10;3.22;;;10.10;61.60;;;;;;2065616;28;20030;-60
2021/03/16 01:44:46;;;;;;;14.77;3.17;;;10.10;61.70;;;;;;2072544;28;20402;-61
2021/03/16 01:46:08;;;;;;;10.10;2.70;;;10.10;61.60;;;;;;2064036;28;20121;-60
2021/03/16 01:47:28;;;;;;;10.85;3.03;;;10.10;61.70;;;;;;2065259;28;20286;-61
2021/03/16 01:48:50;;;;;;;10.75;2.63;;;10.10;61.70;;;;;;2066784;28;20521;-60
2021/03/16 01:50:12;;;;;;;14.18;3.33;;;10.10;61.70;;;;;;2057447;28;20041;-60
2021/03/16 01:51:33;;;;;;;10.73;3.20;;;10.10;62.40;;;;;;2066619;28;20523;-60
2021/03/16 01:52:55;;;;;;;7.60;2.75;;;10.10;61.60;;;;;;2070525;28;20121;-60
2021/03/16 01:54:15;;;;;;;11.32;3.10;;;10.10;61.60;;;;;;2062163;28;20022;-60
2021/03/16 01:55:37;;;;;;;10.07;3.15;;;10.10;61.70;;;;;;2063361;28;20038;-60
2021/03/16 01:57:01;;;;;;;12.90;2.83;;;10.10;61.70;;;;;;2070178;28;20026;-61
2021/03/16 01:58:22;;;;;;;12.68;3.22;;;10.10;61.70;;;;;;2062338;28;20035;-61
2021/03/16 01:59:43;;;;;;;9.98;3.13;;;10.10;61.70;;;;;;2065768;28;20312;-60
2021/03/16 02:01:04;;;;;;;15.73;3.13;;;10.10;61.70;;;;;;2062500;28;20026;-60
2021/03/16 02:02:25;;;;;;;9.00;2.45;;;10.10;61.70;;;;;;2058853;28;20052;-60
2021/03/16 02:03:46;;;;;;;11.95;3.25;;;10.10;61.80;;;;;;2062000;28;20113;-61
2021/03/16 02:05:11;;;;;;;9.52;2.80;;;10.10;61.80;;;;;;2061564;28;20042;-60
2021/03/16 02:06:50;;;;;;;12.27;3.45;;;10.10;61.80;;;;;;2070358;28;20029;-61
2021/03/16 02:08:44;;;;;;;11.73;2.42;;;10.10;61.70;;;;;;2070342;28;20030;-61
2021/03/16 02:10:14;;;;;;;9.93;2.92;;;10.10;61.80;;;;;;2062488;28;20042;-60
2021/03/16 02:12:08;;;;;;;8.52;2.75;;;10.10;61.70;;;;;;2070841;28;20468;-61
2021/03/16 02:13:42;;;;;;;8.02;2.33;;;10.10;61.70;;;;;;2069768;28;20100;-60
2021/03/16 02:15:16;;;;;;;9.20;2.55;;;10.10;61.70;;;;;;2069590;28;20485;-60
2021/03/16 02:17:00;;;;;;;8.95;2.70;;;10.10;61.50;;;;;;2064614;28;20030;-61
2021/03/16 02:18:25;;;;;;;4.65;2.42;;;10.10;61.50;;;;;;2060003;28;20646;-59
2021/03/16 02:20:06;;;;;;;15.15;3.38;;;10.10;61.40;;;;;;2062960;28;20035;-60
2021/03/16 02:21:30;;;;;;;12.05;3.15;;;10.10;61.30;;;;;;2064630;28;20030;-60
2021/03/16 02:22:52;;;;;;;9.18;2.33;;;10.10;61.20;;;;;;2071922;28;20030;-60
2021/03/16 02:24:24;;;;;;;9.00;2.70;;;10.10;61.20;;;;;;2066437;28;20038;-60
2021/03/16 02:26:08;;;;;;;8.85;2.92;;;10.10;61.30;;;;;;2060960;28;20421;-60
2021/03/16 02:27:40;;;;;;;10.23;2.50;;;10.10;61.20;;;;;;2066094;28;20459;-59
2021/03/16 02:29:29;;;;;;;7.22;2.78;;;10.10;61.10;;;;;;2073152;28;20030;-61
2021/03/16 02:30:51;;;;;;;12.48;3.33;;;10.10;61.00;;;;;;2069777;28;20041;-61
2021/03/16 02:32:21;;;;;;;10.23;3.00;;;10.10;61.00;;;;;;2059340;28;20030;-61
2021/03/16 02:33:43;;;;;;;6.22;2.70;;;10.10;61.10;;;;;;2067680;28;20053;-61
2021/03/16 02:35:06;;;;;;;5.60;2.08;;;10.10;61.10;;;;;;2064099;28;20117;-61
2021/03/16 02:36:28;;;;;;;9.25;2.78;;;10.10;61.20;;;;;;2065123;28;20093;-60
2021/03/16 02:37:51;;;;;;;8.10;2.47;;;10.10;61.10;;;;;;2064202;28;20470;-60
2021/03/16 02:39:13;;;;;;;9.75;2.90;;;10.00;61.10;;;;;;2058208;28;20046;-61
2021/03/16 02:40:36;;;;;;;8.60;2.25;;;10.10;61.10;;;;;;2071518;28;20030;-60
2021/03/16 02:41:59;;;;;;;8.07;2.53;;;10.10;61.10;;;;;;2068418;28;20165;-60
2021/03/16 02:43:21;;;;;;;7.97;2.72;;;10.10;61.10;;;;;;2067136;28;20483;-61
2021/03/16 02:44:43;;;;;;;10.10;2.47;;;10.10;61.10;;;;;;2071012;28;20052;-60
2021/03/16 02:46:06;;;;;;;8.70;2.67;;;10.10;61.00;;;;;;2064345;28;20042;-60
2021/03/16 02:47:27;;;;;;;7.43;2.22;;;10.10;61.00;;;;;;2062657;28;20511;-60
2021/03/16 02:48:49;;;;;;;9.25;2.03;;;10.10;60.90;;;;;;2068943;28;20179;-60
2021/03/16 02:50:12;;;;;;;7.57;2.45;;;10.10;60.90;;;;;;2063236;28;20041;-60
2021/03/16 02:51:33;;;;;;;13.50;2.60;;;10.10;60.90;;;;;;2065650;28;20042;-60
2021/03/16 02:52:54;;;;;;;7.30;2.53;;;10.00;60.90;;;;;;2064770;28;20045;-60
2021/03/16 02:54:18;;;;;;;7.43;2.22;;;10.00;60.90;;;;;;2063772;28;20046;-61
2021/03/16 02:55:40;;;;;;;12.80;2.45;;;10.00;60.90;;;;;;2061032;28;20111;-60
2021/03/16 02:57:01;;;;;;;12.27;3.30;;;10.00;60.90;;;;;;2064071;28;20026;-61
2021/03/16 02:58:23;;;;;;;10.38;2.25;;;10.00;60.90;;;;;;2060466;28;20031;-60
2021/03/16 02:59:45;;;;;;;12.70;2.30;;;10.00;61.00;;;;;;2066834;28;20104;-60
2021/03/16 03:01:07;;;;;;;9.80;2.88;;;10.00;61.10;;;;;;2062156;28;20022;-60
2021/03/16 03:02:29;;;;;;;9.02;2.85;;;10.00;61.10;;;;;;2064911;28;20026;-59
2021/03/16 03:03:51;;;;;;;8.40;2.60;;;10.00;61.10;;;;;;2060483;28;20040;-59
2021/03/16 03:05:13;;;;;;;14.07;2.28;;;10.00;61.10;;;;;;2064624;28;20480;-60
2021/03/16 03:06:37;;;;;;;7.68;2.45;;;10.00;61.20;;;;;;2067359;28;20388;-61
2021/03/16 03:07:59;;;;;;;9.50;2.58;;;10.10;61.30;;;;;;2066511;28;20074;-60
2021/03/16 03:09:20;;;;;;;11.02;2.45;;;10.00;61.20;;;;;;2064685;28;20259;-60
2021/03/16 03:10:41;;;;;;;8.13;2.05;;;10.00;61.10;;;;;;2066860;28;20333;-60
2021/03/16 03:12:05;;;;;;;9.88;2.72;;;10.00;61.10;;;;;;2064992;28;20157;-60
2021/03/16 03:13:26;;;;;;;9.23;2.40;;;10.00;61.10;;;;;;2065247;28;20050;-61
2021/03/16 03:14:47;;;;;;;14.38;2.95;;;10.00;61.20;;;;;;2062087;28;20449;-60
2021/03/16 03:16:08;;;;;;;10.93;2.50;;;10.00;61.20;;;;;;2064208;28;20080;-58
2021/03/16 03:17:29;;;;;;;9.63;2.53;;;10.00;61.20;;;;;;2062490;28;20149;-61
2021/03/16 03:18:50;;;;;;;7.10;2.58;;;10.00;61.20;;;;;;2061636;28;20068;-61
2021/03/16 03:20:13;;;;;;;10.70;2.45;;;10.00;61.10;;;;;;2062882;28;20031;-61
2021/03/16 03:21:58;;;;;;;6.55;2.40;;;10.00;61.10;;;;;;2061199;28;20049;-61
2021/03/16 03:23:28;;;;;;;7.38;2.60;;;10.00;61.10;;;;;;2043881;28;20114;-58
2021/03/16 03:24:56;;;;;;;8.68;2.83;;;10.00;61.10;;;;;;2062547;28;20042;-60
2021/03/16 03:26:35;;;;;;;15.55;3.53;;;10.00;61.00;;;;;;2064564;28;20034;-59
2021/03/16 03:28:01;;;;;;;7.65;2.55;;;10.00;61.00;;;;;;2070495;28;20357;-59
2021/03/16 03:29:25;;;;;;;7.47;2.35;;;10.00;60.90;;;;;;2058975;28;20367;-59
2021/03/16 03:30:48;;;;;;;10.68;2.38;;;10.00;61.00;;;;;;2061750;28;20096;-61
2021/03/16 03:32:10;;;;;;;7.45;2.17;;;10.00;61.00;;;;;;2056871;28;20493;-60
2021/03/16 03:33:32;;;;;;;7.88;2.65;;;10.00;61.70;;;;;;2067385;28;20037;-61
2021/03/16 03:34:54;;;;;;;8.70;2.40;;;10.00;61.10;;;;;;2064540;28;20494;-59
2021/03/16 03:36:15;;;;;;;8.30;2.88;;;10.00;61.10;;;;;;2058782;28;20109;-59
2021/03/16 03:37:37;;;;;;;8.93;3.05;;;10.00;61.10;;;;;;2067170;28;20038;-60
2021/03/16 03:38:58;;;;;;;8.70;2.92;;;10.00;61.10;;;;;;2063789;28;20497;-61
2021/03/16 03:40:20;;;;;;;9.48;2.75;;;10.00;61.20;;;;;;2062818;28;20034;-61
2021/03/16 03:41:41;;;;;;;10.95;3.00;;;10.10;61.30;;;;;;2068708;28;20030;-61
2021/03/16 03:43:06;;;;;;;9.70;2.42;;;10.00;61.40;;;;;;2071485;28;20057;-59
2021/03/16 03:44:31;;;;;;;6.78;2.38;;;10.00;61.40;;;;;;2062836;28;20026;-61
2021/03/16 03:45:54;;;;;;;8.65;3.20;;;10.00;61.60;;;;;;2063309;28;20054;-60
2021/03/16 03:47:16;;;;;;;12.88;3.15;;;10.00;61.50;;;;;;2060775;28;20117;-61
2021/03/16 03:48:38;;;;;;;12.32;3.30;;;10.00;61.50;;;;;;2063056;28;20037;-61
2021/03/16 03:50:00;;;;;;;9.90;2.45;;;10.00;61.50;;;;;;2067881;28;20033;-60
2021/03/16 03:51:21;;;;;;;10.88;3.03;;;10.00;62.30;;;;;;2064509;28;20038;-60
2021/03/16 03:52:43;;;;;;;11.30;2.95;;;10.00;61.60;;;;;;2062991;28;20027;-60
2021/03/16 03:54:05;;;;;;;8.25;2.88;;;10.00;61.70;;;;;;2056436;28;20463;-59
2021/03/16 03:55:28;;;;;;;9.18;2.53;;;10.00;61.70;;;;;;2061269;28;20088;-59
2021/03/16 03:56:50;;;;;;;14.20;3.22;;;10.00;61.70;;;;;;2062337;28;20018;-59
2021/03/16 03:58:11;;;;;;;6.95;2.58;;;10.00;61.80;;;;;;2064248;28;20037;-59
2021/03/16 03:59:32;;;;;;;10.82;2.97;;;10.00;61.80;;;;;;2062939;28;20030;-60
2021/03/16 04:00:54;;;;;;;10.75;2.63;;;10.00;61.80;;;;;;2062646;28;20358;-60
2021/03/16 04:02:16;;;;;;;8.52;2.33;;;10.00;61.70;;;;;;2064502;28;20042;-59
2021/03/16 04:03:37;;;;;;;10.93;3.42;;;10.10;61.80;;;;;;2069218;28;20030;-60
2021/03/16 04:04:59;;;;;;;9.40;2.70;;;10.10;61.80;;;;;;2062164;28;20046;-59
2021/03/16 04:06:22;;;;;;;8.68;2.58;;;10.00;61.70;;;;;;2063305;28;20174;-59
2021/03/16 04:07:44;;;;;;;10.70;2.55;;;10.00;61.80;;;;;;2066763;28;20034;-60
2021/03/16 04:09:06;;;;;;;11.80;2.70;;;10.00;61.70;;;;;;2063048;28;20035;-59
2021/03/16 04:10:26;;;;;;;9.70;3.00;;;10.00;61.80;;;;;;2057932;28;20026;-59
2021/03/16 04:11:48;;;;;;;9.75;2.60;;;10.00;61.80;;;;;;2067700;28;20349;-60
2021/03/16 04:13:09;;;;;;;9.20;3.00;;;10.10;61.90;;;;;;2065741;28;20031;-61
2021/03/16 04:14:32;;;;;;;8.63;2.75;;;10.00;61.80;;;;;;2071274;28;20030;-60
2021/03/16 04:15:53;;;;;;;13.10;2.72;;;10.00;61.80;;;;;;2062409;28;20034;-61
2021/03/16 04:17:14;;;;;;;10.23;2.70;;;10.00;61.80;;;;;;2051435;28;20020;-60
2021/03/16 04:18:35;;;;;;;7.95;2.47;;;10.10;61.80;;;;;;2062083;28;20026;-60
2021/03/16 04:19:56;;;;;;;14.20;3.22;;;10.00;61.70;;;;;;2064808;28;20058;-60
2021/03/16 04:21:17;;;;;;;11.48;3.03;;;10.10;61.80;;;;;;2062964;28;20031;-61
2021/03/16 04:22:40;;;;;;;10.20;2.80;;;10.10;61.80;;;;;;2068577;28;20052;-60
2021/03/16 04:24:03;;;;;;;10.65;2.97;;;10.10;62.00;;;;;;2063013;28;20034;-60
2021/03/16 04:25:24;;;;;;;10.98;3.35;;;10.10;61.90;;;;;;2057402;28;20177;-60
2021/03/16 04:26:45;;;;;;;14.18;3.67;;;10.10;61.90;;;;;;2060884;28;20031;-59
2021/03/16 04:28:06;;;;;;;10.10;2.67;;;10.10;62.00;;;;;;2068834;28;20376;-60
2021/03/16 04:29:27;;;;;;;11.25;3.25;;;10.10;61.90;;;;;;2063447;28;20041;-60
2021/03/16 04:30:48;;;;;;;11.75;3.40;;;10.10;61.90;;;;;;2064584;28;20019;-60
2021/03/16 04:32:08;;;;;;;7.30;2.85;;;10.00;61.90;;;;;;2063744;28;20034;-60
2021/03/16 04:33:29;;;;;;;7.28;3.50;;;10.00;61.80;;;;;;2063843;28;20465;-59
2021/03/16 04:34:51;;;;;;;8.15;3.08;;;10.00;61.90;;;;;;2064685;28;20033;-59
2021/03/16 04:36:12;;;;;;;9.70;3.25;;;10.10;62.00;;;;;;2065108;28;20756;-59
2021/03/16 04:37:33;;;;;;;9.25;3.08;;;10.10;62.00;;;;;;2069259;28;20469;-59
2021/03/16 04:38:53;;;;;;;10.85;2.95;;;10.00;61.90;;;;;;2061653;28;20446;-60
2021/03/16 04:40:15;;;;;;;12.95;3.35;;;10.00;61.90;;;;;;2058030;28;20035;-59
2021/03/16 04:41:36;;;;;;;10.05;3.10;;;10.00;61.90;;;;;;2071509;28;20038;-60
2021/03/16 04:42:57;;;;;;;10.18;3.17;;;10.00;61.80;;;;;;2068787;28;20070;-59
2021/03/16 04:44:18;;;;;;;11.73;3.30;;;10.00;61.80;;;;;;2062464;28;20040;-61
2021/03/16 04:45:39;;;;;;;11.80;3.60;;;10.00;61.90;;;;;;2067071;28;20044;-60
2021/03/16 04:47:00;;;;;;;9.82;3.22;;;10.00;61.90;;;;;;2069195;28;20041;-61
2021/03/16 04:48:21;;;;;;;13.02;3.63;;;10.00;61.90;;;;;;2052189;28;20530;-61
2021/03/16 04:49:41;;;;;;;11.80;3.38;;;10.00;62.00;;;;;;2067984;28;20037;-61
2021/03/16 04:51:02;;;;;;;9.55;3.50;;;10.00;62.00;;;;;;2070093;28;20037;-60
2021/03/16 04:52:23;;;;;;;11.60;3.58;;;10.00;61.90;;;;;;2069494;28;20042;-60
2021/03/16 04:53:44;;;;;;;8.70;3.20;;;10.00;62.00;;;;;;2070448;28;20515;-60
2021/03/16 04:55:06;;;;;;;10.50;3.40;;;10.00;62.00;;;;;;2057300;28;21280;-60
2021/03/16 04:56:26;;;;;;;6.72;2.53;;;10.00;62.00;;;;;;2065772;28;20038;-60
2021/03/16 04:57:47;;;;;;;10.43;2.95;;;10.00;62.00;;;;;;2062358;28;20403;-60
2021/03/16 04:59:08;;;;;;;7.65;3.00;;;10.00;62.00;;;;;;2064215;28;20030;-60
2021/03/16 05:00:29;;;;;;;9.85;3.40;;;10.00;62.10;;;;;;2064844;28;20092;-60
2021/03/16 05:01:50;;;;;;;11.68;3.70;;;10.00;62.10;;;;;;2066623;28;20249;-60
2021/03/16 05:03:11;;;;;;;12.63;3.50;;;10.00;62.20;;;;;;2064561;28;20081;-60
2021/03/16 05:04:32;;;;;;;11.70;3.25;;;10.00;62.20;;;;;;2066534;28;20023;-60
2021/03/16 05:05:53;;;;;;;11.23;3.28;;;10.00;62.20;;;;;;2067116;28;20100;-61
2021/03/16 05:07:14;;;;;;;11.65;3.38;;;10.00;62.20;;;;;;2064452;28;20030;-60
2021/03/16 05:08:35;;;;;;;11.43;3.45;;;10.00;62.20;;;;;;2066386;28;20681;-60
2021/03/16 05:09:56;;;;;;;10.50;3.50;;;10.00;62.20;;;;;;2062036;28;20042;-61
2021/03/16 05:11:17;;;;;;;10.90;3.05;;;10.10;62.20;;;;;;2058183;28;20057;-61
2021/03/16 05:12:38;;;;;;;7.93;2.75;;;10.00;62.20;;;;;;2067911;28;20049;-61
2021/03/16 05:13:59;;;;;;;11.93;2.95;;;10.00;62.20;;;;;;2065266;28;20023;-60
2021/03/16 05:15:20;;;;;;;11.18;3.30;;;10.00;62.20;;;;;;2063322;28;20100;-60
2021/03/16 05:16:41;;;;;;;8.02;2.80;;;10.10;62.20;;;;;;2071227;28;20428;-60
2021/03/16 05:18:02;;;;;;;11.68;3.47;;;10.00;62.20;;;;;;2064582;28;20474;-61
2021/03/16 05:19:23;;;;;;;7.20;2.67;;;10.10;62.20;;;;;;2063479;28;20153;-60
2021/03/16 05:20:44;;;;;;;9.73;2.80;;;10.10;62.20;;;;;;2063302;28;20053;-60
2021/03/16 05:22:05;;;;;;;9.18;2.92;;;10.10;62.20;;;;;;2063391;28;20026;-59
2021/03/16 05:23:26;;;;;;;9.73;3.25;;;10.00;62.20;;;;;;2066280;28;20369;-60
2021/03/16 05:24:47;;;;;;;11.18;2.97;;;10.00;62.20;;;;;;2060634;28;20041;-60
2021/03/16 05:26:08;;;;;;;9.82;3.00;;;10.10;62.30;;;;;;2063910;28;20054;-60
2021/03/16 05:27:29;;;;;;;9.27;3.30;;;10.10;62.30;;;;;;2061007;28;20108;-60
2021/03/16 05:28:51;;;;;;;12.43;2.58;;;10.10;62.30;;;;;;2069505;28;20410;-60
2021/03/16 05:30:12;;;;;;;10.55;3.00;;;10.10;62.30;;;;;;2060969;28;20034;-60
2021/03/16 05:31:33;;;;;;;9.23;2.70;;;10.10;62.30;;;;;;2068266;28;20026;-60
2021/03/16 05:32:56;;;;;;;11.95;3.00;;;10.00;62.20;;;;;;2062433;28;20038;-60
2021/03/16 05:34:16;;;;;;;9.43;3.13;;;10.00;62.20;;;;;;2063909;28;20046;-60
2021/03/16 05:35:38;;;;;;;9.00;2.53;;;10.00;62.20;;;;;;2061182;28;20006;-60
2021/03/16 05:36:59;;;;;;;7.28;2.53;;;10.10;62.40;;;;;;2064074;28;20121;-60
2021/03/16 05:38:19;;;;;;;7.32;2.40;;;10.00;62.30;;;;;;2062130;28;20521;-60
2021/03/16 05:39:40;;;;;;;10.98;3.08;;;10.00;62.30;;;;;;2063723;28;20126;-60
2021/03/16 05:41:02;;;;;;;7.60;2.25;;;10.00;62.30;;;;;;2062098;28;20026;-60
2021/03/16 05:42:24;;;;;;;12.40;2.65;;;10.00;62.30;;;;;;2064692;28;20030;-60
2021/03/16 05:43:47;;;;;;;9.05;2.63;;;10.00;62.40;;;;;;2066548;28;20469;-60
2021/03/16 05:45:08;;;;;;;7.70;2.80;;;10.10;62.40;;;;;;2055833;28;20085;-60
2021/03/16 05:46:31;;;;;;;11.65;3.28;;;10.00;62.40;;;;;;2058981;28;20063;-60
2021/03/16 05:47:52;;;;;;;6.90;3.00;;;10.10;62.50;;;;;;2064921;28;20038;-60
2021/03/16 05:49:17;;;;;;;8.45;2.88;;;10.10;62.40;;;;;;2060445;28;20125;-60
2021/03/16 05:50:38;;;;;;;15.90;3.35;;;10.00;62.40;;;;;;2067236;28;20026;-60
2021/03/16 05:51:59;;;;;;;11.32;2.88;;;10.00;62.40;;;;;;2066563;28;20067;-60
2021/03/16 05:53:21;;;;;;;7.43;2.30;;;10.10;62.40;;;;;;2064403;28;20042;-60
2021/03/16 05:54:42;;;;;;;9.93;2.88;;;10.00;62.30;;;;;;2055188;28;20034;-60
2021/03/16 05:56:04;;;;;;;8.35;2.75;;;10.00;62.40;;;;;;2062676;28;20034;-60
2021/03/16 05:57:26;;;;;;;6.15;2.50;;;10.00;62.40;;;;;;2061605;28;20364;-60
2021/03/16 05:58:48;;;;;;;7.75;2.30;;;10.00;62.50;;;;;;2067025;28;20022;-60
2021/03/16 06:00:10;;;;;;;12.18;2.70;;;10.10;62.50;;;;;;2064819;28;20101;-60
2021/03/16 06:01:31;;;;;;;8.82;2.38;;;10.00;62.30;;;;;;2067325;28;20060;-60
2021/03/16 06:02:52;;;;;;;8.15;2.60;;;10.00;62.20;;;;;;2064332;28;20104;-60
2021/03/16 06:04:13;;;;;;;6.78;2.65;;;10.00;62.20;;;;;;2065471;28;20037;-60
2021/03/16 06:05:34;;;;;;;7.57;2.28;;;10.00;62.30;;;;;;2071360;28;20033;-60
2021/03/16 06:06:56;;;;;;;9.27;2.35;;;10.00;62.30;;;;;;2071856;28;20029;-60
2021/03/16 06:08:17;;;;;;;7.63;1.90;;;10.00;62.40;;;;;;2060041;28;20023;-60
2021/03/16 06:09:39;;;;;;;8.00;2.92;;;10.00;62.40;;;;;;2057594;28;20367;-60
2021/03/16 06:11:01;;;;;;;6.85;2.33;;;10.00;62.50;;;;;;2069129;28;20080;-60
2021/03/16 06:12:32;;;;;;;10.02;2.88;;;10.00;62.50;;;;;;2062709;28;20037;-60
2021/03/16 06:13:55;;;;;;;10.65;3.05;;;10.00;62.70;;;;;;2064125;28;20536;-60
2021/03/16 06:15:18;;;;;;;9.65;2.58;;;10.00;62.60;;;;;;2064505;28;20109;-59
2021/03/16 06:16:40;;;;;;;12.05;2.97;;;10.00;62.60;;;;;;2064633;28;20591;-60
2021/03/16 06:18:01;;;;;;;8.60;3.05;;;10.00;62.60;;;;;;2065246;28;20034;-60
2021/03/16 06:19:30;;;;;;;9.82;2.70;;;10.00;62.60;;;;;;2065802;28;20069;-60
2021/03/16 06:21:02;;;;;;;9.17;2.73;;;10.00;62.80;;;;;;2061656;28;20520;-59
2021/03/16 06:22:23;;;;;;;7.28;2.53;;;10.00;62.80;;;;;;2058240;28;20364;-59
2021/03/16 06:23:55;;;;;;;9.02;3.10;;;10.10;62.80;;;;;;2068537;28;20037;-59
2021/03/16 06:25:16;;;;;;;8.55;2.65;;;10.00;62.90;;;;;;2060053;28;20414;-59
2021/03/16 06:26:36;;;;;;;9.40;2.38;;;10.10;62.80;;;;;;2067619;28;20439;-59
2021/03/16 06:27:59;;;;;;;7.20;2.85;;;10.10;62.80;;;;;;2070012;28;20037;-59
2021/03/16 06:29:20;;;;;;;9.90;2.72;;;10.00;62.80;;;;;;2058759;28;20053;-60
2021/03/16 06:30:42;;;;;;;7.00;2.28;;;10.10;62.90;;;;;;2068828;28;20337;-59
2021/03/16 06:32:11;;;;;;;6.45;2.58;;;10.10;62.90;;;;;;2071626;28;20447;-59
2021/03/16 06:33:33;;;;;;;6.05;1.83;;;10.10;62.90;;;;;;2068571;28;20104;-59
2021/03/16 06:35:01;;;;;;;7.03;2.40;;;10.10;62.80;;;;;;2056974;28;20031;-60
2021/03/16 06:36:29;;;;;;;9.48;2.92;;;10.10;62.90;;;;;;2049285;28;20035;-59
2021/03/16 06:38:23;;;;;;;8.40;2.95;;;10.10;63.00;;;;;;2062315;28;20550;-60
2021/03/16 06:39:44;;;;;;;8.15;2.55;;;10.10;63.10;;;;;;2053639;28;20654;-59
2021/03/16 06:41:17;;;;;;;8.23;2.38;;;10.10;62.80;;;;;;2061246;28;20033;-59
2021/03/16 06:42:38;;;;;;;6.45;2.25;;;10.10;62.90;;;;;;2064553;28;20151;-59
2021/03/16 06:44:01;;;;;;;7.57;2.42;;;10.20;62.90;;;;;;2057874;28;20022;-60
2021/03/16 06:45:29;;;;;;;9.15;2.30;;;10.10;62.90;;;;;;2059277;28;20037;-60
2021/03/16 06:47:01;;;;;;;10.02;2.58;;;10.20;63.00;;;;;;2070078;28;20037;-59
2021/03/16 06:48:24;;;;;;;11.10;2.58;;;10.20;63.10;;;;;;2059178;28;20031;-59
2021/03/16 06:49:45;;;;;;;12.20;2.70;;;10.20;63.00;;;;;;2057266;28;20088;-59
2021/03/16 06:51:11;;;;;;;8.15;2.67;;;10.20;63.00;;;;;;2056151;28;20023;-59
2021/03/16 06:52:32;;;;;;;11.75;2.55;;;10.20;63.20;;;;;;2064731;28;20030;-59
2021/03/16 06:53:53;;;;;;;9.13;2.47;;;10.20;63.10;;;;;;2068250;28;20062;-60
2021/03/16 06:55:14;;;;;;;8.13;2.80;;;10.20;63.20;;;;;;2060075;28;20748;-59
2021/03/16 06:56:36;;;;;;;10.40;2.63;;;10.20;63.30;;;;;;2059631;28;20022;-59
2021/03/16 06:58:07;;;;;;;11.95;3.17;;;10.20;63.20;;;;;;2066445;28;20109;-59
2021/03/16 06:59:30;;;;;;;10.02;2.85;;;10.30;63.40;;;;;;2062426;28;20037;-59
2021/03/16 07:01:10;;;;;;;10.20;3.28;;;10.30;63.40;;;;;;2063382;28;20034;-59
2021/03/16 07:02:31;;;;;;;;;;;10.30;63.40;;;;;;2058135;28;20089;-59
2021/03/16 07:03:52;;;;;;;11.38;2.40;;;10.30;63.60;;;;;;2062015;28;19921;-60
2021/03/16 07:05:23;;;;;;;8.63;3.47;;;10.30;63.00;;;;;;2056717;28;20034;-59
2021/03/16 07:06:45;;;;;;;10.45;2.67;;;10.30;62.90;;;;;;2062475;28;20026;-60
2021/03/16 07:08:08;;;;;;;7.10;3.08;;;10.40;62.90;;;;;;2069662;28;20030;-60
2021/03/16 07:09:31;;;;;;;8.45;2.60;;;10.40;63.60;;;;;;2060580;28;20168;-59